Airfield :
LOGIN :

Register | Disclaimer

   EN    FR    IT 

 










Legend :    VFR   Marginal VFR   IFR   Intensive IFR   Very Intensive IFR
Visi :
Ceiling :
>= 8 km
>= 3000ft
5 to 8 km
1000 to 3000 ft
1500m to 5 km
500 to 1000 ft
800 to 1500m
200 to 500 ft
< 800m
< 200 ft
Symbols :   Thunderstorms  Fog  Heavy snow  Heavy precipitations  Wind > 20 kt
SIGMETs :     Misc.  Thunderstorms  Icing  Turbulence  Mountain Waves  Volcanic Ashes






- Airport Elevation : 525 ft
- IATA code : VAF


LFLU - Valence

CURRENT METAR :
  • 030830Z AUTO VRB02KT CAVOK 26/14 Q1018

EXPIRED METARs :
  • 030800Z AUTO VRB03KT CAVOK 25/16 Q1018
  • 030730Z AUTO 35004KT 310V040 CAVOK 23/16 Q1018
  • 030700Z AUTO VRB02KT CAVOK 22/15 Q1019
  • 030630Z AUTO VRB02KT CAVOK 21/15 Q1019
  • 030600Z AUTO 00000KT CAVOK 20/15 Q1019

TAF N/A



MET'MAP, your aeronautical weather chart ! - Copyright ORBIFLY December 2007 - Disclaimer

ORBIFLY MET'MAP TEAM :

Programming & Development : Alexandra Zaïnal
Original concept : Baudouin d'Aumeries
Technical & hardware support : Manuel Goepfert
Assistance : Marc-Olivier Méhu




SOURCES & CREDITS :

   NOAA